Time;durP1;ratioP1;P1;durP2;ratioP2;P2;SDS_P1;SDS_P2;PMS_P1;PMS_P2;Temp;Humidity;BMP_temperature;BMP_pressure;BME280_temperature;BME280_humidity;BME280_pressure;Samples;Min_cycle;Max_cycle;Signal;HPM_P1;HPM_P2
2020/12/24 00:00:11;;;;;;;10.32;9.73;;;9.40;99.90;;;;;;5052328;28;20059;-71
2020/12/24 00:02:39;;;;;;;11.70;10.70;;;9.40;99.90;;;;;;5047034;28;20626;-72
2020/12/24 00:05:10;;;;;;;11.25;10.45;;;9.30;99.90;;;;;;5064546;28;20053;-71
2020/12/24 00:07:36;;;;;;;10.80;9.88;;;9.30;99.90;;;;;;5064906;28;20159;-72
2020/12/24 00:10:03;;;;;;;12.07;11.18;;;9.20;99.90;;;;;;5064479;28;20078;-72
2020/12/24 00:12:30;;;;;;;12.30;11.45;;;9.20;99.90;;;;;;5065697;28;20127;-72
2020/12/24 00:14:56;;;;;;;11.07;10.35;;;9.20;99.90;;;;;;5065264;28;20048;-71
2020/12/24 00:17:22;;;;;;;10.98;10.38;;;9.10;99.90;;;;;;5063563;28;20394;-71
2020/12/24 00:19:49;;;;;;;11.30;10.27;;;9.10;99.90;;;;;;5065019;28;20052;-71
2020/12/24 00:22:15;;;;;;;11.10;10.15;;;9.00;99.90;;;;;;5063273;28;20047;-72
2020/12/24 00:24:41;;;;;;;10.38;9.88;;;9.00;99.90;;;;;;5059614;28;20045;-71
2020/12/24 00:27:08;;;;;;;10.75;10.20;;;8.90;99.90;;;;;;5043414;28;20051;-70
2020/12/24 00:29:36;;;;;;;11.98;11.18;;;8.90;99.90;;;;;;5027723;28;20127;-69
2020/12/24 00:32:03;;;;;;;11.02;10.38;;;8.90;99.90;;;;;;5043306;28;20053;-71
2020/12/24 00:34:29;;;;;;;11.50;10.85;;;8.80;99.90;;;;;;5080959;28;20052;-71
2020/12/24 00:36:56;;;;;;;11.73;10.98;;;8.90;99.90;;;;;;5046993;28;20045;-72
2020/12/24 00:39:25;;;;;;;12.25;11.35;;;8.80;99.90;;;;;;5047308;28;20048;-70
2020/12/24 00:41:51;;;;;;;11.57;10.50;;;8.80;99.90;;;;;;5036281;28;20040;-71
2020/12/24 00:44:19;;;;;;;11.80;10.73;;;8.70;99.90;;;;;;5027309;28;20095;-72
2020/12/24 00:46:45;;;;;;;11.95;11.15;;;8.80;99.90;;;;;;5050123;28;20390;-71
2020/12/24 00:49:12;;;;;;;11.90;10.93;;;8.80;99.90;;;;;;5064200;28;20059;-71
2020/12/24 00:51:38;;;;;;;12.15;11.40;;;8.80;99.90;;;;;;5045808;28;20414;-71
2020/12/24 00:54:04;;;;;;;11.50;10.80;;;8.80;99.90;;;;;;5039134;28;20437;-72
2020/12/24 00:56:31;;;;;;;12.70;11.55;;;8.70;99.90;;;;;;5021205;28;20135;-70
2020/12/24 00:59:06;;;;;;;11.77;10.75;;;8.70;99.90;;;;;;5023878;28;20056;-70
2020/12/24 01:01:33;;;;;;;11.38;10.57;;;8.70;99.90;;;;;;5034256;28;20441;-69
2020/12/24 01:03:59;;;;;;;11.68;10.77;;;8.80;99.90;;;;;;5056496;28;20080;-71
2020/12/24 01:06:25;;;;;;;11.65;10.98;;;8.70;99.90;;;;;;5063432;28;20056;-70
2020/12/24 01:08:52;;;;;;;11.38;10.68;;;8.70;99.90;;;;;;5064391;28;20092;-71
2020/12/24 01:11:18;;;;;;;12.65;10.95;;;8.70;99.90;;;;;;5064668;28;20056;-71
2020/12/24 01:13:45;;;;;;;15.05;11.05;;;8.70;99.90;;;;;;5064886;28;20507;-70
2020/12/24 01:16:12;;;;;;;12.20;11.40;;;8.70;99.90;;;;;;5062589;28;20056;-71
2020/12/24 01:18:55;;;;;;;12.55;11.20;;;8.70;99.90;;;;;;5063059;28;20389;-70
2020/12/24 01:21:22;;;;;;;13.00;10.88;;;8.70;99.90;;;;;;5045065;28;20630;-70
2020/12/24 01:23:48;;;;;;;12.35;11.05;;;8.60;99.90;;;;;;5060453;28;20102;-71
2020/12/24 01:26:15;;;;;;;11.23;9.82;;;8.50;99.90;;;;;;5060293;28;20141;-71
2020/12/24 01:28:41;;;;;;;14.70;10.52;;;8.40;99.90;;;;;;5028949;28;20041;-71
2020/12/24 01:31:07;;;;;;;11.90;10.80;;;8.40;99.90;;;;;;5031032;28;20091;-71
2020/12/24 01:33:33;;;;;;;10.82;10.23;;;8.40;99.90;;;;;;5044197;28;20060;-71
2020/12/24 01:35:59;;;;;;;12.45;11.32;;;8.30;99.90;;;;;;5046547;28;20045;-70
2020/12/24 01:38:26;;;;;;;11.52;10.70;;;8.20;99.90;;;;;;5064325;28;20037;-72
2020/12/24 01:41:00;;;;;;;11.68;10.60;;;8.20;99.90;;;;;;5062286;28;20032;-70
2020/12/24 01:43:27;;;;;;;11.77;10.70;;;8.20;99.90;;;;;;5064346;28;20234;-71
2020/12/24 01:45:57;;;;;;;11.65;10.75;;;8.10;99.90;;;;;;5064005;28;20036;-70
2020/12/24 01:48:24;;;;;;;10.80;10.15;;;8.00;99.90;;;;;;5062488;28;20049;-71
2020/12/24 01:50:51;;;;;;;12.23;11.15;;;8.00;99.90;;;;;;5062642;28;20052;-70
2020/12/24 01:53:23;;;;;;;14.80;11.10;;;7.90;99.90;;;;;;5062401;28;20076;-71
2020/12/24 01:55:51;;;;;;;11.80;10.63;;;7.90;99.90;;;;;;5056503;28;20159;-70
2020/12/24 01:58:18;;;;;;;11.93;11.02;;;7.90;99.90;;;;;;5052051;28;20463;-71
2020/12/24 02:00:46;;;;;;;14.45;10.93;;;7.90;99.90;;;;;;5037218;28;20044;-72
2020/12/24 02:03:16;;;;;;;14.52;11.30;;;7.90;99.90;;;;;;5062185;28;20049;-71
2020/12/24 02:05:43;;;;;;;11.10;10.45;;;7.80;99.90;;;;;;5061909;28;20060;-71
2020/12/24 02:08:15;;;;;;;12.30;11.00;;;7.80;99.90;;;;;;5064187;28;20449;-71
2020/12/24 02:10:42;;;;;;;11.93;11.07;;;7.80;99.90;;;;;;5061227;28;20409;-70
2020/12/24 02:13:08;;;;;;;11.25;10.40;;;7.80;99.90;;;;;;5064439;28;20135;-71
2020/12/24 02:15:35;;;;;;;11.90;10.75;;;7.80;99.90;;;;;;5045700;28;20418;-69
2020/12/24 02:18:01;;;;;;;13.68;11.05;;;7.80;99.90;;;;;;5045671;28;20054;-71
2020/12/24 02:20:28;;;;;;;14.63;11.63;;;7.70;99.90;;;;;;5047260;28;20037;-71
2020/12/24 02:22:54;;;;;;;12.38;10.50;;;7.70;99.90;;;;;;5044568;28;20063;-71
2020/12/24 02:25:20;;;;;;;11.25;10.18;;;7.70;99.90;;;;;;5057860;28;20045;-72
2020/12/24 02:27:47;;;;;;;10.70;9.88;;;7.70;99.90;;;;;;5029379;28;20055;-71
2020/12/24 02:30:13;;;;;;;17.42;11.13;;;7.80;99.90;;;;;;5054390;28;20059;-71
2020/12/24 02:32:39;;;;;;;11.57;10.38;;;7.70;99.90;;;;;;5047310;28;20056;-70
2020/12/24 02:35:06;;;;;;;13.13;10.43;;;7.70;99.90;;;;;;5039785;28;20090;-72
2020/12/24 02:37:32;;;;;;;11.20;10.13;;;7.70;99.90;;;;;;5057211;28;20060;-71
2020/12/24 02:39:59;;;;;;;11.85;10.90;;;7.60;99.90;;;;;;5067187;28;20160;-71
2020/12/24 02:42:25;;;;;;;14.15;10.20;;;7.60;99.90;;;;;;5048063;28;20428;-71
2020/12/24 02:44:51;;;;;;;12.52;10.60;;;7.60;99.90;;;;;;5066334;28;20053;-71
2020/12/24 02:47:18;;;;;;;11.77;9.88;;;7.50;99.90;;;;;;5066704;28;20080;-71
2020/12/24 02:49:56;;;;;;;10.68;9.75;;;7.50;99.90;;;;;;5066572;28;20080;-71
2020/12/24 02:52:22;;;;;;;13.20;10.98;;;7.50;99.90;;;;;;5047590;28;20050;-72
2020/12/24 02:54:49;;;;;;;16.10;9.98;;;7.50;99.90;;;;;;5049077;28;20428;-70
2020/12/24 02:57:15;;;;;;;11.55;9.20;;;7.50;99.90;;;;;;5064682;28;20051;-70
2020/12/24 03:00:05;;;;;;;15.35;9.27;;;7.50;99.90;;;;;;5042971;28;20080;-70
2020/12/24 03:02:31;;;;;;;10.50;9.45;;;7.50;99.90;;;;;;5064214;28;20135;-70
2020/12/24 03:04:58;;;;;;;9.38;8.65;;;7.60;99.90;;;;;;5066400;28;20056;-70
2020/12/24 03:07:24;;;;;;;15.52;9.25;;;7.60;99.90;;;;;;5066473;28;20139;-70
2020/12/24 03:09:50;;;;;;;11.57;8.93;;;7.60;99.90;;;;;;5065293;28;20645;-71
2020/12/24 03:12:17;;;;;;;10.15;9.13;;;7.60;99.90;;;;;;5066396;28;20064;-72
2020/12/24 03:14:43;;;;;;;13.13;10.02;;;7.70;99.90;;;;;;5065497;28;20626;-71
2020/12/24 03:17:09;;;;;;;10.15;9.15;;;7.70;99.90;;;;;;5047599;28;20131;-71
2020/12/24 03:19:35;;;;;;;10.48;9.20;;;7.70;99.90;;;;;;5047569;28;20045;-71
2020/12/24 03:22:02;;;;;;;12.13;9.98;;;7.70;99.90;;;;;;5048248;28;20066;-70
2020/12/24 03:24:28;;;;;;;11.23;9.52;;;7.70;99.90;;;;;;5067176;28;20060;-72
2020/12/24 03:26:54;;;;;;;12.77;10.40;;;7.70;99.90;;;;;;5064734;28;20048;-70
2020/12/24 03:29:20;;;;;;;14.13;9.10;;;7.70;99.90;;;;;;5065468;28;20606;-71
2020/12/24 03:31:47;;;;;;;9.70;8.75;;;7.70;99.90;;;;;;5047362;28;20129;-70
2020/12/24 03:34:13;;;;;;;10.75;8.88;;;7.60;99.90;;;;;;5030958;28;20083;-71
2020/12/24 03:36:39;;;;;;;10.07;9.02;;;7.70;99.90;;;;;;5047667;28;20045;-71
2020/12/24 03:39:05;;;;;;;13.95;9.27;;;7.60;99.90;;;;;;5066642;28;20059;-71
2020/12/24 03:41:32;;;;;;;10.82;9.48;;;7.60;99.90;;;;;;5056139;28;20049;-71
2020/12/24 03:43:58;;;;;;;10.55;9.38;;;7.60;99.90;;;;;;5082015;28;20503;-71
2020/12/24 03:46:24;;;;;;;10.48;9.35;;;7.60;99.90;;;;;;5065273;28;20050;-70
2020/12/24 03:48:51;;;;;;;10.52;9.48;;;7.60;99.90;;;;;;5064698;28;20171;-70
2020/12/24 03:51:17;;;;;;;13.18;9.75;;;7.60;99.90;;;;;;5048052;28;20066;-71
2020/12/24 03:53:43;;;;;;;11.73;10.10;;;7.60;99.90;;;;;;5064442;28;20424;-71
2020/12/24 03:56:10;;;;;;;11.07;10.00;;;7.50;99.90;;;;;;5055603;28;20071;-71
2020/12/24 03:58:36;;;;;;;10.85;9.90;;;7.50;99.90;;;;;;5044681;28;20041;-72
2020/12/24 04:01:02;;;;;;;10.13;9.20;;;7.40;99.90;;;;;;5053205;28;20044;-71
2020/12/24 04:03:28;;;;;;;13.32;9.27;;;7.50;99.90;;;;;;5063678;28;20040;-71
2020/12/24 04:05:55;;;;;;;13.35;9.68;;;7.50;99.90;;;;;;5063222;28;20722;-72
2020/12/24 04:08:23;;;;;;;11.85;10.38;;;7.50;99.90;;;;;;5064606;28;20078;-70
2020/12/24 04:10:49;;;;;;;18.45;9.63;;;7.50;99.90;;;;;;5054489;28;20036;-71
2020/12/24 04:13:16;;;;;;;11.35;8.88;;;7.50;99.90;;;;;;5031435;28;20079;-70
2020/12/24 04:15:42;;;;;;;9.70;8.82;;;7.50;99.90;;;;;;5063620;28;20048;-70
2020/12/24 04:18:08;;;;;;;11.88;9.38;;;7.50;99.90;;;;;;5063461;28;20044;-71
2020/12/24 04:20:54;;;;;;;10.35;9.25;;;7.60;99.90;;;;;;5065687;28;20467;-71
2020/12/24 04:23:21;;;;;;;16.92;10.02;;;7.50;99.90;;;;;;5063849;28;20506;-71
2020/12/24 04:25:47;;;;;;;13.35;9.90;;;7.50;99.90;;;;;;5046978;28;20052;-75
2020/12/24 04:28:13;;;;;;;23.15;9.27;;;7.50;99.90;;;;;;5064432;28;20052;-71
2020/12/24 04:30:42;;;;;;;11.20;10.02;;;7.50;99.90;;;;;;5063959;28;20044;-72
2020/12/24 04:33:13;;;;;;;14.68;8.77;;;7.50;99.90;;;;;;5063304;28;20194;-71
2020/12/24 04:35:39;;;;;;;10.02;9.00;;;7.50;99.90;;;;;;5029495;28;20051;-71
2020/12/24 04:38:07;;;;;;;13.65;8.90;;;7.50;99.90;;;;;;5063202;28;20085;-71
2020/12/24 04:40:34;;;;;;;13.05;9.00;;;7.50;99.90;;;;;;5043040;28;20056;-71
2020/12/24 04:43:02;;;;;;;10.25;9.32;;;7.40;99.90;;;;;;5064896;28;20084;-71
2020/12/24 04:45:33;;;;;;;10.90;9.23;;;7.40;99.90;;;;;;5062880;28;20036;-71
2020/12/24 04:48:00;;;;;;;9.73;8.60;;;7.40;99.90;;;;;;5063213;28;20057;-71
2020/12/24 04:50:28;;;;;;;10.80;8.50;;;7.30;99.90;;;;;;5064321;28;20049;-71
2020/12/24 04:52:54;;;;;;;8.70;7.88;;;7.30;99.90;;;;;;5080733;28;20134;-71
2020/12/24 04:55:22;;;;;;;8.43;7.65;;;7.30;99.90;;;;;;5061795;28;20139;-71
2020/12/24 04:57:49;;;;;;;7.03;6.28;;;7.20;99.90;;;;;;5065142;28;20128;-71
2020/12/24 05:00:16;;;;;;;8.25;6.43;;;7.20;99.90;;;;;;5062963;28;20060;-71
2020/12/24 05:02:43;;;;;;;7.20;6.13;;;7.20;99.90;;;;;;5063322;28;20067;-71
2020/12/24 05:05:09;;;;;;;9.75;6.18;;;7.10;99.90;;;;;;5062148;28;20501;-70
2020/12/24 05:07:45;;;;;;;13.55;6.45;;;7.10;99.90;;;;;;5063181;28;20067;-71
2020/12/24 05:10:14;;;;;;;10.55;5.93;;;7.10;99.90;;;;;;5055314;28;20134;-71
2020/12/24 05:12:40;;;;;;;6.50;5.97;;;7.10;99.90;;;;;;5063066;28;20228;-72
2020/12/24 05:15:07;;;;;;;7.53;6.78;;;7.10;99.90;;;;;;5045552;28;20032;-71
2020/12/24 05:17:33;;;;;;;12.00;7.07;;;7.10;99.90;;;;;;5046315;28;20037;-70
2020/12/24 05:20:04;;;;;;;10.20;6.90;;;7.10;99.90;;;;;;5063418;28;20477;-71
2020/12/24 05:22:31;;;;;;;8.48;7.63;;;7.10;99.90;;;;;;5062849;28;20048;-70
2020/12/24 05:25:11;;;;;;;9.75;7.40;;;7.10;99.90;;;;;;5063443;28;20059;-71
2020/12/24 05:27:40;;;;;;;8.68;7.65;;;7.00;99.90;;;;;;5046055;28;20056;-71
2020/12/24 05:30:06;;;;;;;10.20;6.38;;;7.00;99.90;;;;;;5064209;28;20244;-71
2020/12/24 05:32:33;;;;;;;10.27;6.85;;;7.00;99.90;;;;;;5062906;28;20075;-71
2020/12/24 05:35:11;;;;;;;7.10;6.50;;;7.00;99.90;;;;;;5064656;28;20127;-70
2020/12/24 05:37:38;;;;;;;7.90;7.07;;;6.90;99.90;;;;;;5063940;28;20366;-71
2020/12/24 05:40:25;;;;;;;6.90;6.45;;;6.90;99.90;;;;;;5024083;28;20088;-71
2020/12/24 05:43:00;;;;;;;7.97;6.70;;;6.80;99.90;;;;;;5043137;28;20055;-72
2020/12/24 05:45:32;;;;;;;9.57;6.05;;;6.80;99.90;;;;;;5042856;28;20060;-69
2020/12/24 05:48:15;;;;;;;10.55;7.00;;;6.80;99.90;;;;;;5042351;28;20158;-70
2020/12/24 05:50:43;;;;;;;7.05;6.45;;;6.80;99.90;;;;;;5042874;28;20488;-71
2020/12/24 05:53:14;;;;;;;10.07;5.72;;;6.80;99.90;;;;;;5043137;28;20267;-71
2020/12/24 05:55:42;;;;;;;12.30;8.55;;;6.70;99.90;;;;;;5033569;28;20824;-71
2020/12/24 05:58:10;;;;;;;9.23;6.68;;;6.60;99.90;;;;;;5067908;28;20040;-70
2020/12/24 06:00:41;;;;;;;9.50;6.35;;;6.60;99.90;;;;;;5066407;28;20036;-71
2020/12/24 06:03:12;;;;;;;14.05;6.55;;;6.50;99.90;;;;;;5066006;28;20052;-71
2020/12/24 06:05:56;;;;;;;10.23;6.65;;;6.50;99.90;;;;;;5066726;28;20040;-71
2020/12/24 06:08:29;;;;;;;7.47;5.20;;;6.50;99.90;;;;;;5066962;28;20048;-70
2020/12/24 06:11:06;;;;;;;7.00;5.28;;;6.50;99.90;;;;;;5058906;28;20501;-70
2020/12/24 06:13:44;;;;;;;13.57;5.40;;;6.50;99.90;;;;;;5049705;28;20382;-71
2020/12/24 06:16:14;;;;;;;7.43;5.45;;;6.50;99.90;;;;;;5065319;28;20052;-71
2020/12/24 06:18:45;;;;;;;5.95;5.30;;;6.60;99.90;;;;;;5067004;28;20044;-70
2020/12/24 06:21:19;;;;;;;7.57;5.72;;;6.60;99.90;;;;;;5064900;28;20056;-70
2020/12/24 06:23:56;;;;;;;13.93;6.75;;;6.60;99.90;;;;;;5066642;28;20055;-70
2020/12/24 06:26:37;;;;;;;12.90;6.07;;;6.60;99.90;;;;;;5082095;28;20060;-71
2020/12/24 06:29:04;;;;;;;8.57;5.43;;;6.60;99.90;;;;;;5066073;28;20088;-71
2020/12/24 06:31:33;;;;;;;9.15;5.45;;;6.70;99.90;;;;;;5067128;28;20049;-71
2020/12/24 06:34:23;;;;;;;8.73;6.45;;;6.70;99.90;;;;;;5065487;28;20056;-71
2020/12/24 06:36:49;;;;;;;6.25;5.55;;;6.70;99.90;;;;;;5065819;28;20040;-70
2020/12/24 06:39:38;;;;;;;11.50;5.80;;;6.70;99.90;;;;;;5066925;28;20056;-71
2020/12/24 06:42:04;;;;;;;9.63;5.90;;;6.70;99.90;;;;;;5060238;28;20431;-70
2020/12/24 06:44:47;;;;;;;12.63;5.20;;;6.70;99.90;;;;;;5066503;28;20057;-72
2020/12/24 06:47:16;;;;;;;12.10;6.47;;;6.70;99.90;;;;;;5065092;28;20152;-72
2020/12/24 06:49:43;;;;;;;7.97;5.20;;;6.70;99.90;;;;;;5065139;28;20706;-70
2020/12/24 06:52:11;;;;;;;10.55;6.22;;;6.70;99.90;;;;;;5065468;28;20497;-71
2020/12/24 06:54:40;;;;;;;13.90;6.85;;;6.70;99.90;;;;;;5066534;28;20068;-70
2020/12/24 06:57:24;;;;;;;10.30;6.57;;;6.70;99.90;;;;;;5049500;28;20093;-71
2020/12/24 07:00:17;;;;;;;12.35;9.35;;;6.70;99.90;;;;;;5050438;28;20091;-72
2020/12/24 07:02:46;;;;;;;14.18;10.15;;;6.60;99.90;;;;;;5066063;28;20098;-71
2020/12/24 07:05:36;;;;;;;11.38;8.82;;;6.60;99.90;;;;;;5064874;28;20044;-71
2020/12/24 07:08:03;;;;;;;10.13;9.07;;;6.60;99.90;;;;;;5066403;28;20474;-71
2020/12/24 07:10:49;;;;;;;10.73;9.30;;;6.60;99.90;;;;;;5040656;28;20095;-72
2020/12/24 07:13:32;;;;;;;8.77;7.90;;;6.50;99.90;;;;;;5049863;28;20051;-71
2020/12/24 07:15:58;;;;;;;13.00;7.18;;;6.50;99.90;;;;;;5049188;28;20048;-72
2020/12/24 07:18:24;;;;;;;9.80;6.68;;;6.50;99.90;;;;;;5064675;28;20082;-71
2020/12/24 07:20:52;;;;;;;9.73;5.53;;;6.40;99.90;;;;;;5066774;28;20047;-73
2020/12/24 07:23:32;;;;;;;8.30;5.85;;;6.40;99.90;;;;;;5064761;28;20045;-73
2020/12/24 07:26:00;;;;;;;8.18;4.40;;;6.40;99.90;;;;;;5065032;28;20133;-72
2020/12/24 07:28:29;;;;;;;10.18;5.18;;;6.40;99.90;;;;;;5065812;28;20138;-72
2020/12/24 07:31:00;;;;;;;11.32;4.50;;;6.30;99.90;;;;;;5065263;28;20056;-72
2020/12/24 07:33:27;;;;;;;11.23;4.80;;;6.30;99.90;;;;;;5048094;28;20055;-72
2020/12/24 07:35:54;;;;;;;7.60;5.40;;;6.30;99.90;;;;;;5064447;28;20048;-72
2020/12/24 07:38:22;;;;;;;5.68;3.97;;;6.30;99.90;;;;;;5065308;28;20044;-73
2020/12/24 07:40:48;;;;;;;5.68;4.63;;;6.30;99.90;;;;;;5056537;28;20048;-73
2020/12/24 07:43:16;;;;;;;10.02;4.57;;;6.20;99.90;;;;;;5065841;28;20235;-73
2020/12/24 07:45:43;;;;;;;6.05;5.53;;;5.90;99.90;;;;;;5048033;28;20523;-74
2020/12/24 07:48:38;;;;;;;5.30;5.05;;;5.40;99.90;;;;;;5044726;28;20241;-73
2020/12/24 07:51:08;;;;;;;5.88;5.53;;;5.00;99.90;;;;;;5043451;28;20055;-73
2020/12/24 07:53:35;;;;;;;4.68;4.47;;;4.90;99.90;;;;;;5065711;28;20135;-73
2020/12/24 07:56:05;;;;;;;4.60;4.40;;;4.60;99.90;;;;;;5065900;28;20049;-73
2020/12/24 07:58:32;;;;;;;4.60;4.40;;;4.40;99.90;;;;;;5081455;28;20055;-73
2020/12/24 08:01:02;;;;;;;4.57;4.28;;;4.30;99.90;;;;;;5046503;28;20131;-75
2020/12/24 08:03:30;;;;;;;4.60;4.40;;;4.30;99.90;;;;;;5079426;28;20044;-75
2020/12/24 08:06:05;;;;;;;4.07;3.97;;;4.30;99.90;;;;;;5063376;28;20493;-76
2020/12/24 08:08:35;;;;;;;4.03;3.83;;;4.20;99.90;;;;;;5065953;28;20070;-76
2020/12/24 08:11:07;;;;;;;4.80;4.60;;;4.10;99.90;;;;;;5056093;28;20536;-75
2020/12/24 08:13:33;;;;;;;4.80;4.50;;;4.00;99.90;;;;;;5048443;28;20043;-73
2020/12/24 08:16:00;;;;;;;5.15;4.95;;;3.90;99.90;;;;;;5064426;28;20131;-75
2020/12/24 08:18:33;;;;;;;7.10;6.60;;;3.90;99.90;;;;;;5047463;28;20049;-75
2020/12/24 08:21:06;;;;;;;4.70;4.50;;;3.90;99.90;;;;;;5043721;28;20055;-74
2020/12/24 08:23:50;;;;;;;4.93;4.73;;;3.80;99.90;;;;;;5028249;28;20386;-74
2020/12/24 08:26:18;;;;;;;4.30;4.10;;;3.70;99.90;;;;;;5054803;28;20052;-74
2020/12/24 08:29:06;;;;;;;4.25;4.05;;;3.80;99.90;;;;;;5047936;28;20036;-75
2020/12/24 08:31:39;;;;;;;4.20;4.03;;;3.70;99.90;;;;;;5031344;28;20041;-74
2020/12/24 08:34:09;;;;;;;4.03;3.92;;;3.70;99.90;;;;;;5047969;28;20143;-75
2020/12/24 08:36:47;;;;;;;3.80;3.70;;;3.60;99.90;;;;;;5064596;28;20457;-73
2020/12/24 08:39:16;;;;;;;3.90;3.80;;;3.40;99.90;;;;;;5063821;28;20480;-74
2020/12/24 08:41:45;;;;;;;4.07;3.97;;;3.30;99.90;;;;;;5027636;28;20063;-76
2020/12/24 08:44:18;;;;;;;4.78;4.53;;;3.30;99.90;;;;;;5064696;28;20102;-75
2020/12/24 08:47:06;;;;;;;4.13;4.00;;;3.20;99.90;;;;;;5063920;28;20056;-75
2020/12/24 08:49:39;;;;;;;4.32;4.13;;;3.00;99.90;;;;;;5046984;28;20512;-76
2020/12/24 08:52:14;;;;;;;4.78;4.57;;;3.10;99.90;;;;;;5046457;28;20412;-75
2020/12/24 08:55:00;;;;;;;5.15;4.85;;;3.10;99.90;;;;;;5064654;28;20602;-74
2020/12/24 08:57:27;;;;;;;4.90;4.60;;;3.20;99.90;;;;;;5063371;28;20802;-73
2020/12/24 08:59:58;;;;;;;5.00;4.70;;;3.20;99.90;;;;;;5046639;28;20487;-75
2020/12/24 09:02:30;;;;;;;4.63;4.32;;;3.20;99.90;;;;;;5061961;28;20044;-74
2020/12/24 09:04:57;;;;;;;5.30;4.93;;;3.10;99.90;;;;;;5030721;28;20049;-76
2020/12/24 09:07:26;;;;;;;7.55;6.85;;;3.10;99.90;;;;;;5063682;28;20045;-74
2020/12/24 09:10:13;;;;;;;7.15;6.55;;;3.00;99.90;;;;;;5026287;28;20144;-73
2020/12/24 09:12:41;;;;;;;4.82;4.47;;;3.00;99.90;;;;;;5062716;28;20045;-73
2020/12/24 09:15:13;;;;;;;6.15;5.57;;;2.90;99.90;;;;;;5046561;28;20063;-73
2020/12/24 09:17:51;;;;;;;6.70;5.50;;;2.80;99.90;;;;;;5063475;28;20682;-73
2020/12/24 09:20:31;;;;;;;5.03;4.63;;;2.80;99.90;;;;;;5063139;28;20055;-74
2020/12/24 09:23:06;;;;;;;4.78;4.38;;;2.80;99.90;;;;;;5063179;28;20104;-74
2020/12/24 09:25:38;;;;;;;4.80;4.45;;;2.80;99.90;;;;;;5045534;28;20048;-74
2020/12/24 09:28:17;;;;;;;4.32;3.92;;;2.70;99.90;;;;;;5063213;28;20059;-74
2020/12/24 09:30:43;;;;;;;4.07;3.78;;;2.70;99.90;;;;;;5054385;28;20052;-74
2020/12/24 09:33:09;;;;;;;4.18;3.78;;;2.70;99.90;;;;;;5063569;28;20131;-74
2020/12/24 09:35:35;;;;;;;4.22;3.92;;;2.70;99.90;;;;;;5046612;28;20058;-73
2020/12/24 09:38:02;;;;;;;4.47;4.00;;;2.70;99.90;;;;;;5046555;28;20075;-74
2020/12/24 09:40:29;;;;;;;5.28;4.88;;;2.70;99.90;;;;;;5054651;28;20459;-75
2020/12/24 09:42:55;;;;;;;4.80;4.40;;;2.70;99.90;;;;;;5033056;28;20052;-74
2020/12/24 09:45:23;;;;;;;5.53;4.85;;;2.70;99.90;;;;;;5062988;28;20052;-75
2020/12/24 09:47:50;;;;;;;5.55;4.80;;;2.70;99.90;;;;;;5062722;28;20044;-75
2020/12/24 09:50:16;;;;;;;5.10;4.60;;;2.70;99.90;;;;;;5063148;28;20048;-73
2020/12/24 09:52:43;;;;;;;5.10;4.60;;;2.70;99.90;;;;;;5029062;28;20505;-74
2020/12/24 09:55:09;;;;;;;4.93;4.43;;;2.60;99.90;;;;;;5064650;28;20064;-74
2020/12/24 09:57:36;;;;;;;4.72;4.32;;;2.60;99.90;;;;;;5032901;28;20040;-73
2020/12/24 10:00:08;;;;;;;5.05;4.57;;;2.60;99.90;;;;;;5062219;28;20120;-73
2020/12/24 10:02:35;;;;;;;5.50;5.00;;;2.60;99.90;;;;;;5063439;28;20055;-75
2020/12/24 10:05:03;;;;;;;4.50;4.07;;;2.70;99.90;;;;;;5063497;28;20044;-75
2020/12/24 10:07:29;;;;;;;5.18;4.78;;;2.70;99.90;;;;;;5064466;28;20052;-74
2020/12/24 10:09:55;;;;;;;4.90;4.50;;;2.80;99.90;;;;;;5037978;28;20497;-74
2020/12/24 10:12:23;;;;;;;4.45;4.05;;;2.80;99.90;;;;;;5029228;28;20052;-74
2020/12/24 10:14:50;;;;;;;5.07;4.57;;;2.90;99.90;;;;;;5054636;28;20048;-75
2020/12/24 10:17:16;;;;;;;4.85;4.32;;;3.00;99.90;;;;;;5047260;28;20040;-74
2020/12/24 10:19:43;;;;;;;5.10;4.65;;;3.20;99.90;;;;;;5046766;28;20066;-74
2020/12/24 10:22:10;;;;;;;5.25;4.28;;;3.30;99.90;;;;;;5062421;28;20048;-74
2020/12/24 10:24:50;;;;;;;4.60;4.20;;;3.30;99.90;;;;;;5048298;28;20429;-75
2020/12/24 10:27:16;;;;;;;4.60;4.20;;;3.40;99.90;;;;;;5045925;28;20052;-76
2020/12/24 10:29:42;;;;;;;5.45;4.95;;;3.40;99.90;;;;;;5063113;28;20576;-76
2020/12/24 10:32:09;;;;;;;4.63;4.22;;;3.40;99.90;;;;;;5045443;28;20044;-74
2020/12/24 10:34:35;;;;;;;5.28;4.78;;;3.50;99.90;;;;;;5029889;28;20059;-75
2020/12/24 10:37:01;;;;;;;5.25;4.75;;;3.40;99.90;;;;;;5044956;28;20052;-74
2020/12/24 10:39:28;;;;;;;6.20;5.60;;;3.40;99.90;;;;;;5034011;28;20044;-74
2020/12/24 10:41:55;;;;;;;5.95;5.35;;;3.40;99.90;;;;;;5062320;28;20053;-76
2020/12/24 10:44:21;;;;;;;6.88;6.18;;;3.40;99.90;;;;;;5066988;28;20493;-76
2020/12/24 10:46:52;;;;;;;6.38;5.68;;;3.40;99.90;;;;;;5065763;28;20049;-74
2020/12/24 10:49:18;;;;;;;6.22;5.55;;;3.40;99.90;;;;;;5050389;28;20041;-74
2020/12/24 10:51:44;;;;;;;7.40;6.30;;;3.40;99.90;;;;;;5067559;28;20060;-73
2020/12/24 10:54:10;;;;;;;8.07;6.53;;;3.40;99.90;;;;;;5050627;28;20268;-76
2020/12/24 10:56:37;;;;;;;6.40;5.47;;;3.40;99.90;;;;;;5053845;28;20056;-74
2020/12/24 10:59:03;;;;;;;8.00;7.20;;;3.60;99.90;;;;;;5046463;28;20059;-76
2020/12/24 11:01:30;;;;;;;15.20;7.88;;;3.50;99.90;;;;;;5045246;28;20103;-73
2020/12/24 11:03:56;;;;;;;9.65;7.57;;;3.50;99.90;;;;;;5021074;28;20059;-75
2020/12/24 11:06:24;;;;;;;8.63;7.53;;;3.50;99.90;;;;;;5049004;28;20049;-76
2020/12/24 11:08:51;;;;;;;11.10;7.05;;;3.50;99.90;;;;;;5049564;28;20052;-74
2020/12/24 11:11:19;;;;;;;15.25;8.38;;;3.50;99.90;;;;;;5040639;28;20053;-74
2020/12/24 11:13:46;;;;;;;9.70;7.47;;;3.50;99.90;;;;;;5049385;28;20048;-74
2020/12/24 11:16:23;;;;;;;11.98;8.43;;;3.60;99.90;;;;;;5031691;28;20070;-72
2020/12/24 11:18:50;;;;;;;13.18;8.82;;;3.60;99.90;;;;;;5049364;28;20172;-75
2020/12/24 11:21:18;;;;;;;11.65;8.40;;;3.70;99.90;;;;;;5065229;28;20558;-73
2020/12/24 11:23:47;;;;;;;10.98;8.38;;;3.80;99.90;;;;;;5066297;28;20110;-73
2020/12/24 11:26:21;;;;;;;11.10;8.50;;;3.70;99.90;;;;;;5065061;28;20264;-74
2020/12/24 11:28:47;;;;;;;12.25;8.80;;;3.80;99.90;;;;;;5065147;28;20068;-73
2020/12/24 11:31:13;;;;;;;12.50;8.82;;;3.80;99.90;;;;;;5065953;28;20059;-72
2020/12/24 11:33:42;;;;;;;10.57;9.13;;;3.80;99.90;;;;;;5048167;28;20051;-74
2020/12/24 11:36:09;;;;;;;12.00;9.18;;;3.80;99.90;;;;;;5063743;28;20055;-74
2020/12/24 11:38:35;;;;;;;11.77;9.13;;;3.80;99.90;;;;;;5054374;28;20660;-74
2020/12/24 11:41:01;;;;;;;11.77;8.80;;;3.70;99.90;;;;;;5050416;28;20118;-72
2020/12/24 11:43:29;;;;;;;10.80;8.07;;;3.70;99.90;;;;;;5048997;28;20064;-73
2020/12/24 11:45:55;;;;;;;11.57;9.10;;;3.70;99.90;;;;;;5010130;28;20502;-73
2020/12/24 11:48:21;;;;;;;13.63;9.43;;;3.70;99.90;;;;;;5046825;28;20594;-73
2020/12/24 11:50:48;;;;;;;12.40;8.90;;;3.70;99.90;;;;;;5064258;28;20040;-73
2020/12/24 11:53:14;;;;;;;15.18;10.75;;;3.80;99.90;;;;;;5063456;28;20056;-73
2020/12/24 11:55:49;;;;;;;13.23;10.55;;;3.80;99.90;;;;;;5034558;28;20340;-73
2020/12/24 11:58:15;;;;;;;14.40;10.07;;;3.90;99.90;;;;;;5027317;28;20346;-73
2020/12/24 12:00:41;;;;;;;14.70;10.60;;;3.90;99.90;;;;;;5061529;28;20044;-75
2020/12/24 12:03:08;;;;;;;13.57;10.10;;;3.90;99.90;;;;;;5047219;28;20135;-74
2020/12/24 12:05:34;;;;;;;11.98;9.52;;;4.00;99.90;;;;;;5048228;28;20045;-73
2020/12/24 12:08:00;;;;;;;13.45;8.95;;;4.00;99.90;;;;;;5053312;28;20080;-73
2020/12/24 12:10:26;;;;;;;13.80;10.07;;;3.90;99.90;;;;;;5039592;28;20053;-73
2020/12/24 12:12:53;;;;;;;13.43;9.02;;;4.00;99.90;;;;;;5043929;28;20032;-72
2020/12/24 12:15:19;;;;;;;14.55;10.60;;;3.90;99.90;;;;;;5053063;28;20174;-74
2020/12/24 12:17:45;;;;;;;15.18;10.43;;;4.00;99.90;;;;;;5025979;28;20525;-73
2020/12/24 12:20:12;;;;;;;15.77;11.30;;;4.00;99.90;;;;;;5034094;28;20527;-73
2020/12/24 12:22:38;;;;;;;13.95;10.82;;;3.90;99.90;;;;;;5053861;28;20460;-72
2020/12/24 12:25:04;;;;;;;14.85;10.68;;;4.00;99.90;;;;;;5049398;28;20055;-74
2020/12/24 12:27:31;;;;;;;16.92;11.60;;;4.00;99.90;;;;;;5062122;28;20049;-73
2020/12/24 12:29:57;;;;;;;17.13;11.15;;;3.90;99.90;;;;;;5049439;28;20045;-73
2020/12/24 12:32:23;;;;;;;18.33;11.63;;;4.00;99.90;;;;;;5047899;28;20052;-73
2020/12/24 12:34:49;;;;;;;18.60;12.93;;;4.00;99.90;;;;;;5047808;28;20523;-73
2020/12/24 12:37:17;;;;;;;17.77;12.38;;;4.00;99.90;;;;;;5036145;28;20045;-73
2020/12/24 12:39:43;;;;;;;14.65;10.18;;;4.00;99.90;;;;;;5055605;28;20430;-73
2020/12/24 12:42:09;;;;;;;14.40;10.25;;;4.00;99.90;;;;;;5060393;28;20687;-73
2020/12/24 12:44:36;;;;;;;14.88;11.30;;;4.00;99.90;;;;;;5063108;28;20186;-73
2020/12/24 12:47:02;;;;;;;15.82;11.15;;;4.00;99.90;;;;;;5060114;28;20060;-73
2020/12/24 12:49:29;;;;;;;15.98;12.15;;;4.00;99.90;;;;;;5062338;28;20441;-74
2020/12/24 12:51:55;;;;;;;18.15;13.55;;;4.00;99.90;;;;;;5027440;28;20063;-74
2020/12/24 12:54:22;;;;;;;18.42;12.75;;;4.00;99.90;;;;;;5048521;28;20061;-73
2020/12/24 12:56:48;;;;;;;21.00;13.00;;;3.90;99.90;;;;;;5043482;28;20055;-73